Time;durP1;ratioP1;P1;durP2;ratioP2;P2;SDS_P1;SDS_P2;PMS_P1;PMS_P2;Temp;Humidity;BMP_temperature;BMP_pressure;BME280_temperature;BME280_humidity;BME280_pressure;Samples;Min_cycle;Max_cycle;Signal;HPM_P1;HPM_P2
2021/08/31 00:01:38;;;;;;;28.02;15.68;;;;;;;;;;4915788;29;20048;-66
2021/08/31 00:04:05;;;;;;;29.48;16.40;;;;;;;;;;4899836;29;20044;-67
2021/08/31 00:06:31;;;;;;;25.50;15.57;;;;;;;;;;4900190;29;20060;-66
2021/08/31 00:08:58;;;;;;;25.67;15.30;;;;;;;;;;4900318;29;20060;-66
2021/08/31 00:11:25;;;;;;;24.33;14.48;;;;;;;;;;4900364;29;20052;-66
2021/08/31 00:13:51;;;;;;;21.15;15.63;;;;;;;;;;4899876;29;20111;-66
2021/08/31 00:16:18;;;;;;;21.25;13.82;;;;;;;;;;4900054;29;20052;-67
2021/08/31 00:18:45;;;;;;;26.67;13.48;;;;;;;;;;4900104;29;20104;-67
2021/08/31 00:21:11;;;;;;;22.15;14.82;;;;;;;;;;4899832;29;20060;-68
2021/08/31 00:23:38;;;;;;;21.67;13.70;;;;;;;;;;4898364;29;20056;-66
2021/08/31 00:26:05;;;;;;;24.73;14.98;;;;;;;;;;4898660;29;20496;-69
2021/08/31 00:28:31;;;;;;;24.20;14.05;;;;;;;;;;4899709;29;20131;-67
2021/08/31 00:30:58;;;;;;;26.75;15.10;;;;;;;;;;4899851;29;20096;-68
2021/08/31 00:33:24;;;;;;;29.30;14.57;;;;;;;;;;4899587;29;20057;-66
2021/08/31 00:35:51;;;;;;;23.00;14.05;;;;;;;;;;4899663;29;20123;-67
2021/08/31 00:38:18;;;;;;;25.08;13.77;;;;;;;;;;4899662;29;20485;-67
2021/08/31 00:40:46;;;;;;;24.48;13.40;;;;;;;;;;4899725;29;20111;-67
2021/08/31 00:43:13;;;;;;;21.15;13.48;;;;;;;;;;4899292;29;20572;-67
2021/08/31 00:45:40;;;;;;;20.58;13.15;;;;;;;;;;4898139;29;20052;-67
2021/08/31 00:48:06;;;;;;;20.73;13.63;;;;;;;;;;4899518;29;20049;-67
2021/08/31 00:50:33;;;;;;;19.48;13.13;;;;;;;;;;4914558;29;20123;-69
2021/08/31 00:53:00;;;;;;;21.17;13.27;;;;;;;;;;4918040;29;20100;-66
2021/08/31 00:55:27;;;;;;;23.67;14.15;;;;;;;;;;4916921;29;20456;-67
2021/08/31 00:57:53;;;;;;;21.98;14.40;;;;;;;;;;4918213;29;20060;-69
2021/08/31 01:00:21;;;;;;;27.17;15.65;;;;;;;;;;4904365;29;20577;-66
2021/08/31 01:02:48;;;;;;;26.23;15.93;;;;;;;;;;4899073;29;20143;-67
2021/08/31 01:05:14;;;;;;;28.05;15.57;;;;;;;;;;4898941;29;20080;-66
2021/08/31 01:07:41;;;;;;;30.55;16.67;;;;;;;;;;4899288;29;20049;-66
2021/08/31 01:10:09;;;;;;;31.33;16.92;;;;;;;;;;4898669;29;20103;-67
2021/08/31 01:12:37;;;;;;;26.23;15.43;;;;;;;;;;4914659;29;20472;-67
2021/08/31 01:15:04;;;;;;;34.45;17.10;;;;;;;;;;4917837;29;20076;-69
2021/08/31 01:17:31;;;;;;;28.73;15.90;;;;;;;;;;4916634;29;20111;-67
2021/08/31 01:20:02;;;;;;;25.55;16.25;;;;;;;;;;4917798;29;20088;-67
2021/08/31 01:22:29;;;;;;;26.83;16.60;;;;;;;;;;4917612;29;20464;-67
2021/08/31 01:24:59;;;;;;;32.50;16.33;;;;;;;;;;4900423;29;20120;-66
2021/08/31 01:27:26;;;;;;;29.42;17.48;;;;;;;;;;4898935;29;20139;-68
2021/08/31 01:29:55;;;;;;;27.33;16.02;;;;;;;;;;4898770;29;20526;-67
2021/08/31 01:32:21;;;;;;;27.65;16.70;;;;;;;;;;4897297;29;20056;-67
2021/08/31 01:34:48;;;;;;;26.50;15.55;;;;;;;;;;4898602;29;20049;-69
2021/08/31 01:37:15;;;;;;;25.77;15.90;;;;;;;;;;4914933;29;20104;-67
2021/08/31 01:39:41;;;;;;;28.65;16.67;;;;;;;;;;4917484;29;20052;-67
2021/08/31 01:42:08;;;;;;;28.88;16.17;;;;;;;;;;4917283;29;20052;-66
2021/08/31 01:44:35;;;;;;;31.73;15.88;;;;;;;;;;4917170;29;20127;-67
2021/08/31 01:47:01;;;;;;;26.63;15.50;;;;;;;;;;4902570;29;20445;-67
2021/08/31 01:49:28;;;;;;;28.17;17.25;;;;;;;;;;4909918;29;20564;-66
2021/08/31 01:51:54;;;;;;;23.38;16.02;;;;;;;;;;4899314;29;20052;-68
2021/08/31 01:54:21;;;;;;;28.02;16.88;;;;;;;;;;4898143;29;20056;-66
2021/08/31 01:56:48;;;;;;;27.98;16.98;;;;;;;;;;4910621;29;20463;-66
2021/08/31 01:59:15;;;;;;;25.77;15.90;;;;;;;;;;4917108;29;20563;-66
2021/08/31 02:01:41;;;;;;;24.30;15.40;;;;;;;;;;4916950;29;20056;-66
2021/08/31 02:04:09;;;;;;;34.53;17.05;;;;;;;;;;4916860;29;20131;-66
2021/08/31 02:06:35;;;;;;;26.77;15.75;;;;;;;;;;4900125;29;20108;-66
2021/08/31 02:09:02;;;;;;;30.73;15.77;;;;;;;;;;4898025;29;20061;-66
2021/08/31 02:11:29;;;;;;;28.50;15.18;;;;;;;;;;4897929;29;20464;-66
2021/08/31 02:13:55;;;;;;;30.55;16.42;;;;;;;;;;4897617;29;20080;-66
2021/08/31 02:16:22;;;;;;;26.67;16.20;;;;;;;;;;4912120;29;20182;-66
2021/08/31 02:18:48;;;;;;;28.00;16.65;;;;;;;;;;4916743;29;20059;-66
2021/08/31 02:21:15;;;;;;;30.95;16.85;;;;;;;;;;4916667;29;20112;-69
2021/08/31 02:23:42;;;;;;;33.90;17.27;;;;;;;;;;4916264;29;20060;-68
2021/08/31 02:26:08;;;;;;;31.52;16.92;;;;;;;;;;4903689;29;20556;-67
2021/08/31 02:28:35;;;;;;;29.77;15.98;;;;;;;;;;4897666;29;20056;-66
2021/08/31 02:31:02;;;;;;;32.72;17.48;;;;;;;;;;4897537;29;20053;-67
2021/08/31 02:33:28;;;;;;;27.38;15.88;;;;;;;;;;4901553;29;20055;-67
2021/08/31 02:35:55;;;;;;;29.15;15.77;;;;;;;;;;4916421;29;20048;-66
2021/08/31 02:38:21;;;;;;;34.10;17.77;;;;;;;;;;4916338;29;20055;-66
2021/08/31 02:40:48;;;;;;;37.15;19.20;;;;;;;;;;4916352;29;20055;-67
2021/08/31 02:43:15;;;;;;;39.47;19.17;;;;;;;;;;4913288;29;20103;-67
2021/08/31 02:45:41;;;;;;;32.10;17.33;;;;;;;;;;4897347;29;20472;-67
2021/08/31 02:48:08;;;;;;;34.42;19.10;;;;;;;;;;4896186;29;20060;-69
2021/08/31 02:50:34;;;;;;;35.42;19.08;;;;;;;;;;4897180;29;20052;-67
2021/08/31 02:53:01;;;;;;;32.88;19.30;;;;;;;;;;4897403;29;20409;-67
2021/08/31 02:55:28;;;;;;;36.05;20.23;;;;;;;;;;4916009;29;20096;-66
2021/08/31 02:57:55;;;;;;;35.42;19.35;;;;;;;;;;4916041;29;20052;-67
2021/08/31 03:00:28;;;;;;;33.75;18.13;;;;;;;;;;4915969;29;20066;-68
2021/08/31 03:02:55;;;;;;;;;;;;;;;;;;4916228;29;20084;-66
2021/08/31 03:05:22;;;;;;;33.90;17.50;;;;;;;;;;4896731;29;20439;-67
2021/08/31 03:07:49;;;;;;;31.85;18.40;;;;;;;;;;4897116;29;20060;-68
2021/08/31 03:10:16;;;;;;;32.15;18.10;;;;;;;;;;4897153;29;20108;-67
2021/08/31 03:12:42;;;;;;;34.63;19.08;;;;;;;;;;4896905;29;20538;-66
2021/08/31 03:15:09;;;;;;;33.25;18.25;;;;;;;;;;4897084;29;20057;-67
2021/08/31 03:17:36;;;;;;;30.73;18.35;;;;;;;;;;4896872;29;20107;-67
2021/08/31 03:20:03;;;;;;;30.23;18.25;;;;;;;;;;4896952;29;20049;-66
2021/08/31 03:22:29;;;;;;;32.03;17.27;;;;;;;;;;4896587;29;20499;-67
2021/08/31 03:24:56;;;;;;;38.95;19.52;;;;;;;;;;4911187;29;20052;-66
2021/08/31 03:27:22;;;;;;;34.47;18.08;;;;;;;;;;4915643;29;20100;-66
2021/08/31 03:29:49;;;;;;;34.70;18.50;;;;;;;;;;4915578;29;20052;-68
2021/08/31 03:32:16;;;;;;;34.33;19.13;;;;;;;;;;4915359;29;20056;-67
2021/08/31 03:34:42;;;;;;;32.55;17.90;;;;;;;;;;4906721;29;20056;-66
2021/08/31 03:37:09;;;;;;;27.48;17.33;;;;;;;;;;4902988;29;20081;-66
2021/08/31 03:39:36;;;;;;;30.52;16.67;;;;;;;;;;4902880;29;20492;-67
2021/08/31 03:42:04;;;;;;;35.22;17.63;;;;;;;;;;4902938;29;20057;-67
2021/08/31 03:44:30;;;;;;;25.88;17.38;;;;;;;;;;4913561;29;20056;-66
2021/08/31 03:46:57;;;;;;;34.55;18.67;;;;;;;;;;4921838;29;20565;-66
2021/08/31 03:49:24;;;;;;;34.97;19.33;;;;;;;;;;4922033;29;20551;-68
2021/08/31 03:51:50;;;;;;;30.95;18.08;;;;;;;;;;4921632;29;20056;-67
2021/08/31 03:54:17;;;;;;;29.40;17.65;;;;;;;;;;4912433;29;20120;-68
2021/08/31 03:56:43;;;;;;;32.70;17.67;;;;;;;;;;4902965;29;20049;-67
2021/08/31 03:59:10;;;;;;;37.92;18.95;;;;;;;;;;4902792;29;20508;-67
2021/08/31 04:01:36;;;;;;;30.27;17.65;;;;;;;;;;4902658;29;20056;-68
2021/08/31 04:04:03;;;;;;;35.60;19.45;;;;;;;;;;4910061;29;20091;-66
2021/08/31 04:06:30;;;;;;;35.10;18.70;;;;;;;;;;4921537;29;20682;-67
2021/08/31 04:08:57;;;;;;;37.65;19.45;;;;;;;;;;4921316;29;20111;-66
2021/08/31 04:11:23;;;;;;;34.33;17.67;;;;;;;;;;4921541;29;20115;-66
2021/08/31 04:13:50;;;;;;;38.30;19.08;;;;;;;;;;4916193;29;20053;-66
2021/08/31 04:16:16;;;;;;;33.15;18.83;;;;;;;;;;4902666;29;20496;-66
2021/08/31 04:18:43;;;;;;;35.45;19.38;;;;;;;;;;4902597;29;20053;-66
2021/08/31 04:21:10;;;;;;;41.67;21.98;;;;;;;;;;4902730;29;20048;-67
2021/08/31 04:23:36;;;;;;;38.88;21.15;;;;;;;;;;4905197;29;20567;-69
2021/08/31 04:26:03;;;;;;;34.20;20.52;;;;;;;;;;4921354;29;20048;-67
2021/08/31 04:28:29;;;;;;;33.70;20.75;;;;;;;;;;4921173;29;20084;-67
2021/08/31 04:30:56;;;;;;;35.38;20.42;;;;;;;;;;4921445;29;20052;-66
2021/08/31 04:33:22;;;;;;;31.63;17.88;;;;;;;;;;4919938;29;20052;-69
2021/08/31 04:35:49;;;;;;;30.73;18.02;;;;;;;;;;4902509;29;20423;-67
2021/08/31 04:38:16;;;;;;;30.75;17.65;;;;;;;;;;4902475;29;20052;-66
2021/08/31 04:40:43;;;;;;;33.92;17.98;;;;;;;;;;4902558;29;20056;-68
2021/08/31 04:43:09;;;;;;;27.40;16.42;;;;;;;;;;4902240;29;20048;-67
2021/08/31 04:45:36;;;;;;;26.05;17.83;;;;;;;;;;4918874;29;20056;-67
2021/08/31 04:48:03;;;;;;;27.05;17.20;;;;;;;;;;4918401;29;20056;-67
2021/08/31 04:50:29;;;;;;;24.85;16.83;;;;;;;;;;4918240;29;20052;-67
2021/08/31 04:52:56;;;;;;;24.15;17.10;;;;;;;;;;4918102;29;20107;-67
2021/08/31 04:55:23;;;;;;;25.02;16.33;;;;;;;;;;4901771;29;20500;-67
2021/08/31 04:57:49;;;;;;;26.80;16.38;;;;;;;;;;4899252;29;20499;-67
2021/08/31 05:00:17;;;;;;;24.27;16.60;;;;;;;;;;4900500;29;20049;-67
2021/08/31 05:02:44;;;;;;;27.30;16.63;;;;;;;;;;4926834;29;20520;-66
2021/08/31 05:05:11;;;;;;;23.60;16.17;;;;;;;;;;4936445;29;20495;-66
2021/08/31 05:07:38;;;;;;;26.13;15.93;;;;;;;;;;4918448;29;20064;-69
2021/08/31 05:10:07;;;;;;;28.10;16.55;;;;;;;;;;4917922;29;20064;-66
2021/08/31 05:12:33;;;;;;;26.70;17.15;;;;;;;;;;4917461;29;20104;-68
2021/08/31 05:15:00;;;;;;;26.98;16.75;;;;;;;;;;4917754;29;20052;-67
2021/08/31 05:17:27;;;;;;;30.60;17.27;;;;;;;;;;4917581;29;20467;-66
2021/08/31 05:19:54;;;;;;;28.63;18.13;;;;;;;;;;4934142;29;20099;-67
2021/08/31 05:22:21;;;;;;;27.23;16.75;;;;;;;;;;4935289;29;20499;-67
2021/08/31 05:24:48;;;;;;;27.95;16.40;;;;;;;;;;4937044;29;20099;-67
2021/08/31 05:27:15;;;;;;;22.73;15.60;;;;;;;;;;4936448;29;20507;-67
2021/08/31 05:29:41;;;;;;;23.50;16.83;;;;;;;;;;4936438;29;20126;-67
2021/08/31 05:32:08;;;;;;;24.00;15.68;;;;;;;;;;4936286;29;20051;-67
2021/08/31 05:34:35;;;;;;;25.42;15.88;;;;;;;;;;4933627;29;20056;-67
2021/08/31 05:37:01;;;;;;;28.17;16.80;;;;;;;;;;4915922;29;20049;-67
2021/08/31 05:39:33;;;;;;;25.15;16.63;;;;;;;;;;4898396;29;20052;-67
2021/08/31 05:42:04;;;;;;;20.55;15.35;;;;;;;;;;4898488;29;20120;-67
2021/08/31 05:44:37;;;;;;;22.45;16.02;;;;;;;;;;4897084;29;20060;-67
2021/08/31 05:47:04;;;;;;;25.73;16.73;;;;;;;;;;4898292;29;20049;-67
2021/08/31 05:49:31;;;;;;;20.50;15.05;;;;;;;;;;4898331;29;20060;-67
2021/08/31 05:51:58;;;;;;;26.67;15.93;;;;;;;;;;4898007;29;20563;-67
2021/08/31 05:54:26;;;;;;;22.60;15.75;;;;;;;;;;4898006;29;20061;-67
2021/08/31 05:56:54;;;;;;;23.30;16.42;;;;;;;;;;4897779;29;20104;-67
2021/08/31 05:59:20;;;;;;;27.35;15.65;;;;;;;;;;4898021;29;20056;-67
2021/08/31 06:01:48;;;;;;;20.88;15.88;;;;;;;;;;4897901;29;20048;-67
2021/08/31 06:04:33;;;;;;;25.13;17.10;;;;;;;;;;4897973;29;20056;-67
2021/08/31 06:06:59;;;;;;;25.92;17.17;;;;;;;;;;4897930;29;20048;-67
2021/08/31 06:09:26;;;;;;;22.05;16.17;;;;;;;;;;4897910;29;20056;-67
2021/08/31 06:11:54;;;;;;;22.60;16.10;;;;;;;;;;4898130;29;20128;-67
2021/08/31 06:14:21;;;;;;;23.30;15.10;;;;;;;;;;4910158;29;20056;-67
2021/08/31 06:16:48;;;;;;;26.00;17.13;;;;;;;;;;4916433;29;20058;-67
2021/08/31 06:19:14;;;;;;;24.00;17.20;;;;;;;;;;4915491;29;20076;-67
2021/08/31 06:21:41;;;;;;;21.80;16.02;;;;;;;;;;4916534;29;20556;-67
2021/08/31 06:24:08;;;;;;;21.00;15.45;;;;;;;;;;4903394;29;20064;-68
2021/08/31 06:26:34;;;;;;;21.70;15.65;;;;;;;;;;4895386;29;20052;-66
2021/08/31 06:29:01;;;;;;;21.67;15.98;;;;;;;;;;4895705;29;20112;-66
2021/08/31 06:31:27;;;;;;;19.77;14.60;;;;;;;;;;4895392;29;20111;-66
2021/08/31 06:33:54;;;;;;;19.33;14.15;;;;;;;;;;4895331;29;20119;-67
2021/08/31 06:36:21;;;;;;;15.35;12.65;;;;;;;;;;4894836;29;20108;-67
2021/08/31 06:38:47;;;;;;;18.95;13.00;;;;;;;;;;4895533;29;20132;-66
2021/08/31 06:41:14;;;;;;;16.90;13.15;;;;;;;;;;4895757;29;20052;-66
2021/08/31 06:43:41;;;;;;;14.40;11.85;;;;;;;;;;4894062;29;20056;-66
2021/08/31 06:46:08;;;;;;;17.42;11.68;;;;;;;;;;4895220;29;20057;-67
2021/08/31 06:48:35;;;;;;;14.75;11.80;;;;;;;;;;4895052;29;20096;-66
2021/08/31 06:51:02;;;;;;;15.38;12.05;;;;;;;;;;4894922;29;20597;-66
2021/08/31 06:53:28;;;;;;;15.57;11.90;;;;;;;;;;4895054;29;20510;-67
2021/08/31 06:55:55;;;;;;;15.60;11.75;;;;;;;;;;4895091;29;20058;-66
2021/08/31 06:58:21;;;;;;;16.08;10.90;;;;;;;;;;4894877;29;20052;-67
2021/08/31 07:00:48;;;;;;;13.88;11.13;;;;;;;;;;4895158;29;20056;-66
2021/08/31 07:03:15;;;;;;;14.68;11.27;;;;;;;;;;4894381;29;20504;-66
2021/08/31 07:05:42;;;;;;;14.40;9.88;;;;;;;;;;4894837;29;20108;-66
2021/08/31 07:08:08;;;;;;;15.93;11.05;;;;;;;;;;4894630;29;20089;-67
2021/08/31 07:10:35;;;;;;;12.57;11.10;;;;;;;;;;4894486;29;20485;-66
2021/08/31 07:13:02;;;;;;;15.30;10.52;;;;;;;;;;4894792;29;20053;-66
2021/08/31 07:15:28;;;;;;;14.70;10.20;;;;;;;;;;4902056;29;20343;-66
2021/08/31 07:17:55;;;;;;;11.60;10.05;;;;;;;;;;4913663;29;20577;-66
2021/08/31 07:20:22;;;;;;;13.15;9.32;;;;;;;;;;4913627;29;20055;-65
2021/08/31 07:22:49;;;;;;;11.75;9.18;;;;;;;;;;4898308;29;20491;-66
2021/08/31 07:25:31;;;;;;;11.10;9.13;;;;;;;;;;4903341;29;20507;-67
2021/08/31 07:27:57;;;;;;;12.00;9.30;;;;;;;;;;4900372;29;20060;-68
2021/08/31 07:30:24;;;;;;;13.00;9.57;;;;;;;;;;4900896;29;20594;-68
2021/08/31 07:32:51;;;;;;;11.85;9.70;;;;;;;;;;4898941;29;20397;-67
2021/08/31 07:35:17;;;;;;;11.32;9.68;;;;;;;;;;4900552;29;20084;-65
2021/08/31 07:37:44;;;;;;;11.75;9.20;;;;;;;;;;4899075;29;20411;-65
2021/08/31 07:40:12;;;;;;;11.48;9.32;;;;;;;;;;4902211;29;20056;-67
2021/08/31 07:42:39;;;;;;;10.38;9.18;;;;;;;;;;4901046;29;20071;-70
2021/08/31 07:45:08;;;;;;;10.27;8.98;;;;;;;;;;4900954;29;20382;-65
2021/08/31 07:47:35;;;;;;;10.43;8.93;;;;;;;;;;4898811;29;20060;-65
2021/08/31 07:50:03;;;;;;;11.23;9.75;;;;;;;;;;4900573;29;20313;-69
2021/08/31 07:52:30;;;;;;;12.00;9.07;;;;;;;;;;4901869;29;20052;-67
2021/08/31 07:54:57;;;;;;;12.10;9.10;;;;;;;;;;4899811;29;20065;-65
2021/08/31 07:57:23;;;;;;;11.27;8.93;;;;;;;;;;4900747;29;20048;-68
2021/08/31 07:59:50;;;;;;;11.73;9.27;;;;;;;;;;4898230;29;20045;-67
2021/08/31 08:02:17;;;;;;;10.48;8.90;;;;;;;;;;4901068;29;20431;-64
2021/08/31 08:04:43;;;;;;;11.00;9.10;;;;;;;;;;4898675;29;20045;-64
2021/08/31 08:07:13;;;;;;;13.82;9.45;;;;;;;;;;4903654;29;20488;-69
2021/08/31 08:09:40;;;;;;;15.20;10.20;;;;;;;;;;4900440;29;20485;-70
2021/08/31 08:12:25;;;;;;;14.80;10.48;;;;;;;;;;4902456;29;20142;-70
2021/08/31 08:14:55;;;;;;;12.05;9.38;;;;;;;;;;4880488;29;20052;-69
2021/08/31 08:17:22;;;;;;;12.20;8.60;;;;;;;;;;4900627;29;20056;-68
2021/08/31 08:19:49;;;;;;;10.43;8.25;;;;;;;;;;4902979;29;20103;-64
2021/08/31 08:22:17;;;;;;;13.63;8.98;;;;;;;;;;4904246;29;20048;-65
2021/08/31 08:24:43;;;;;;;10.05;8.35;;;;;;;;;;4906077;29;20504;-64
2021/08/31 08:27:10;;;;;;;12.38;8.25;;;;;;;;;;4904586;29;20056;-65
2021/08/31 08:29:38;;;;;;;11.35;7.28;;;;;;;;;;4906896;29;20104;-64
2021/08/31 08:32:08;;;;;;;11.07;8.43;;;;;;;;;;4904849;29;20048;-67
2021/08/31 08:34:36;;;;;;;8.70;7.57;;;;;;;;;;4905144;29;20111;-65
2021/08/31 08:37:03;;;;;;;15.27;8.40;;;;;;;;;;4905658;29;20044;-67
2021/08/31 08:39:30;;;;;;;8.63;7.25;;;;;;;;;;4902097;29;20472;-69
2021/08/31 08:41:57;;;;;;;10.48;7.65;;;;;;;;;;4907607;29;20052;-66
2021/08/31 08:44:28;;;;;;;11.55;7.38;;;;;;;;;;4903413;29;20060;-74
2021/08/31 08:46:55;;;;;;;8.20;7.03;;;;;;;;;;4898373;29;20116;-72
2021/08/31 08:49:21;;;;;;;11.00;6.88;;;;;;;;;;4905945;29;20456;-71
2021/08/31 08:51:49;;;;;;;8.60;7.20;;;;;;;;;;4905495;29;20048;-70
2021/08/31 08:54:16;;;;;;;9.35;6.68;;;;;;;;;;4902038;29;20126;-70
2021/08/31 08:56:43;;;;;;;10.02;7.05;;;;;;;;;;4906861;29;20048;-67
2021/08/31 08:59:10;;;;;;;7.40;6.47;;;;;;;;;;4902969;29;20469;-69
2021/08/31 09:01:43;;;;;;;8.13;7.20;;;;;;;;;;4905799;29;20468;-69
2021/08/31 09:04:11;;;;;;;8.20;7.03;;;;;;;;;;4907179;29;20492;-67
2021/08/31 09:06:39;;;;;;;10.20;7.03;;;;;;;;;;4903050;29;20553;-70
2021/08/31 09:09:07;;;;;;;8.20;7.00;;;;;;;;;;4907415;29;20052;-70
2021/08/31 09:11:38;;;;;;;7.75;6.03;;;;;;;;;;4903707;29;20052;-71
2021/08/31 09:14:24;;;;;;;7.45;5.90;;;;;;;;;;4903593;29;20508;-69
2021/08/31 09:16:56;;;;;;;7.18;6.32;;;;;;;;;;4908037;29;20048;-71
2021/08/31 09:19:34;;;;;;;7.75;5.63;;;;;;;;;;4903349;29;20119;-67
2021/08/31 09:22:16;;;;;;;7.45;5.72;;;;;;;;;;4906849;29;20085;-75
2021/08/31 09:25:08;;;;;;;6.30;5.25;;;;;;;;;;4904249;29;20052;-69
2021/08/31 09:27:36;;;;;;;7.28;6.03;;;;;;;;;;4904575;29;20108;-67
2021/08/31 09:30:16;;;;;;;7.22;6.07;;;;;;;;;;4905595;29;20456;-69
2021/08/31 09:33:08;;;;;;;6.93;5.65;;;;;;;;;;4905442;29;20056;-68
2021/08/31 09:35:39;;;;;;;6.45;5.43;;;;;;;;;;4904449;29;20191;-68
2021/08/31 09:38:10;;;;;;;5.88;5.25;;;;;;;;;;4906930;29;20504;-69
2021/08/31 09:40:42;;;;;;;6.05;5.13;;;;;;;;;;4903342;29;20053;-68
2021/08/31 09:43:32;;;;;;;7.80;4.80;;;;;;;;;;4906023;29;20056;-68
2021/08/31 09:45:58;;;;;;;7.28;5.43;;;;;;;;;;4906312;29;20060;-69
2021/08/31 09:48:25;;;;;;;6.20;5.47;;;;;;;;;;4901121;29;20488;-67
2021/08/31 09:50:57;;;;;;;6.43;5.05;;;;;;;;;;4905663;29;20048;-68
2021/08/31 09:53:26;;;;;;;6.60;5.00;;;;;;;;;;4903775;29;20055;-68
2021/08/31 09:56:02;;;;;;;5.65;4.85;;;;;;;;;;4903200;29;20052;-68
2021/08/31 09:58:30;;;;;;;5.85;5.25;;;;;;;;;;4905028;29;20048;-67
2021/08/31 10:00:57;;;;;;;6.00;5.18;;;;;;;;;;4902882;29;20096;-67
2021/08/31 10:03:24;;;;;;;7.22;5.25;;;;;;;;;;4904332;29;20048;-68
2021/08/31 10:05:53;;;;;;;5.50;4.88;;;;;;;;;;4902780;29;20044;-68
2021/08/31 10:08:19;;;;;;;5.38;4.63;;;;;;;;;;4903650;29;20048;-68
2021/08/31 10:10:48;;;;;;;6.97;5.13;;;;;;;;;;4903223;29;20052;-68
2021/08/31 10:13:17;;;;;;;7.25;5.28;;;;;;;;;;4902788;29;20099;-68
2021/08/31 10:15:47;;;;;;;6.50;4.63;;;;;;;;;;4904733;29;20282;-69
2021/08/31 10:18:15;;;;;;;6.70;4.53;;;;;;;;;;4902389;29;20048;-69
2021/08/31 10:20:49;;;;;;;5.97;4.57;;;;;;;;;;4905216;29;20111;-68
2021/08/31 10:23:21;;;;;;;5.78;4.20;;;;;;;;;;4901503;29;20059;-68
2021/08/31 10:25:48;;;;;;;6.85;4.68;;;;;;;;;;4916898;29;20485;-71
2021/08/31 10:28:25;;;;;;;6.47;4.75;;;;;;;;;;4902715;29;20046;-72
2021/08/31 10:30:56;;;;;;;7.30;4.75;;;;;;;;;;4906812;29;20103;-69
2021/08/31 10:33:40;;;;;;;6.80;5.38;;;;;;;;;;4904946;29;20056;-72
2021/08/31 10:36:09;;;;;;;6.57;5.15;;;;;;;;;;4903638;29;20503;-75
2021/08/31 10:38:51;;;;;;;5.30;4.68;;;;;;;;;;4904151;29;20083;-71
2021/08/31 10:41:34;;;;;;;7.43;4.95;;;;;;;;;;4908644;29;20049;-71
2021/08/31 10:44:00;;;;;;;7.25;4.57;;;;;;;;;;4901270;29;20059;-76
2021/08/31 10:46:56;;;;;;;7.15;5.45;;;;;;;;;;4900978;29;20053;-74
2021/08/31 10:49:23;;;;;;;5.20;3.75;;;;;;;;;;4903381;29;20572;-73
2021/08/31 10:52:02;;;;;;;6.97;4.65;;;;;;;;;;4903777;29;20492;-74
2021/08/31 10:54:58;;;;;;;4.28;3.75;;;;;;;;;;4905704;29;20056;-69
2021/08/31 10:57:36;;;;;;;6.85;4.55;;;;;;;;;;4891085;29;20040;-68
2021/08/31 11:00:04;;;;;;;7.43;4.45;;;;;;;;;;4902445;29;20052;-67
2021/08/31 11:02:49;;;;;;;6.75;4.75;;;;;;;;;;4902234;29;20103;-67
2021/08/31 11:05:23;;;;;;;5.80;4.70;;;;;;;;;;4904166;29;20052;-68
2021/08/31 11:07:51;;;;;;;7.28;4.53;;;;;;;;;;4902193;29;20041;-68
2021/08/31 11:10:25;;;;;;;5.22;4.40;;;;;;;;;;4904562;29;20055;-68
2021/08/31 11:12:53;;;;;;;4.43;3.97;;;;;;;;;;4905301;29;20052;-71
2021/08/31 11:15:27;;;;;;;5.40;4.30;;;;;;;;;;4900551;29;20063;-69
2021/08/31 11:17:54;;;;;;;5.80;4.50;;;;;;;;;;4904520;29;20044;-74
2021/08/31 11:20:26;;;;;;;8.07;5.07;;;;;;;;;;4889764;29;20069;-69
2021/08/31 11:23:07;;;;;;;4.73;4.03;;;;;;;;;;4902888;29;20080;-71
2021/08/31 11:25:39;;;;;;;5.40;4.43;;;;;;;;;;4905911;29;20511;-75
2021/08/31 11:28:11;;;;;;;6.13;4.35;;;;;;;;;;4900796;29;20068;-75
2021/08/31 11:31:24;;;;;;;6.18;3.85;;;;;;;;;;4906214;29;20052;-77
2021/08/31 11:33:52;;;;;;;6.85;4.15;;;;;;;;;;4856529;29;20105;-74
2021/08/31 11:36:22;;;;;;;5.72;4.47;;;;;;;;;;4899066;29;20056;-71
2021/08/31 11:38:54;;;;;;;5.20;4.57;;;;;;;;;;4901647;29;20076;-73
2021/08/31 11:41:25;;;;;;;4.72;4.22;;;;;;;;;;4901246;29;20115;-73
2021/08/31 11:43:58;;;;;;;6.88;4.90;;;;;;;;;;4904124;29;20518;-71
2021/08/31 11:46:30;;;;;;;6.38;4.20;;;;;;;;;;4901296;29;20048;-71
2021/08/31 11:49:09;;;;;;;4.80;4.30;;;;;;;;;;4904143;29;20048;-70
2021/08/31 11:51:37;;;;;;;5.20;4.25;;;;;;;;;;4902688;29;20100;-68
2021/08/31 11:54:12;;;;;;;6.40;4.35;;;;;;;;;;4885001;29;20466;-68
2021/08/31 11:56:40;;;;;;;6.35;4.70;;;;;;;;;;4908399;29;20499;-66
2021/08/31 11:59:07;;;;;;;5.82;4.47;;;;;;;;;;4905792;29;20572;-67
2021/08/31 12:01:34;;;;;;;4.82;4.32;;;;;;;;;;4905325;29;20056;-67
2021/08/31 12:04:16;;;;;;;4.70;4.22;;;;;;;;;;4906091;29;20052;-67
2021/08/31 12:06:43;;;;;;;5.87;4.40;;;;;;;;;;4906589;29;20531;-67
2021/08/31 12:09:10;;;;;;;4.97;4.07;;;;;;;;;;4893448;29;20132;-67
2021/08/31 12:11:36;;;;;;;5.93;3.78;;;;;;;;;;4906210;29;20060;-67
2021/08/31 12:14:03;;;;;;;6.57;4.10;;;;;;;;;;4904652;29;20115;-67
2021/08/31 12:16:30;;;;;;;9.68;7.07;;;;;;;;;;4904324;29;20116;-67
2021/08/31 12:18:56;;;;;;;34.72;21.45;;;;;;;;;;4913531;29;20120;-66
2021/08/31 12:21:24;;;;;;;13.30;8.15;;;;;;;;;;4904401;29;20048;-67
2021/08/31 12:23:52;;;;;;;6.18;4.30;;;;;;;;;;4903066;29;20154;-67
2021/08/31 12:26:34;;;;;;;5.43;4.50;;;;;;;;;;4908478;29;20378;-67
2021/08/31 12:29:08;;;;;;;5.60;4.68;;;;;;;;;;4906281;29;20143;-68
2021/08/31 12:31:35;;;;;;;5.18;4.05;;;;;;;;;;4904835;29;20112;-67
2021/08/31 12:34:03;;;;;;;4.60;4.20;;;;;;;;;;4906803;29;20056;-66
2021/08/31 12:36:34;;;;;;;5.50;3.83;;;;;;;;;;4902758;29;20052;-67
2021/08/31 12:39:06;;;;;;;4.30;3.90;;;;;;;;;;4906234;29;20052;-67
2021/08/31 12:41:37;;;;;;;4.20;3.78;;;;;;;;;;4904157;29;20117;-67
2021/08/31 12:44:12;;;;;;;5.78;4.30;;;;;;;;;;4903813;29;20056;-67
2021/08/31 12:46:40;;;;;;;4.43;3.58;;;;;;;;;;4905042;29;20415;-68
2021/08/31 12:49:10;;;;;;;4.32;3.90;;;;;;;;;;4903580;29;20060;-67
2021/08/31 12:51:43;;;;;;;6.35;4.13;;;;;;;;;;4907332;29;20052;-67
2021/08/31 12:54:28;;;;;;;5.65;4.05;;;;;;;;;;4904278;29;20286;-68
2021/08/31 12:56:57;;;;;;;4.50;4.03;;;;;;;;;;4905076;29;20555;-67
2021/08/31 12:59:45;;;;;;;4.45;4.05;;;;;;;;;;4905700;29;20048;-66
2021/08/31 13:02:12;;;;;;;4.22;3.83;;;;;;;;;;4906553;29;20060;-68
2021/08/31 13:04:41;;;;;;;4.70;3.80;;;;;;;;;;4904113;29;20105;-67
2021/08/31 13:07:13;;;;;;;4.65;3.65;;;;;;;;;;4904387;29;20071;-67
2021/08/31 13:09:41;;;;;;;5.63;3.88;;;;;;;;;;4904191;29;20056;-68
2021/08/31 13:12:10;;;;;;;4.80;3.65;;;;;;;;;;4904410;29;20064;-68
2021/08/31 13:14:37;;;;;;;4.68;3.63;;;;;;;;;;4905116;29;20080;-67
2021/08/31 13:17:04;;;;;;;4.40;3.92;;;;;;;;;;4906930;29;20111;-67
2021/08/31 13:19:30;;;;;;;3.88;2.80;;;;;;;;;;4905461;29;20112;-67
2021/08/31 13:21:57;;;;;;;4.10;3.22;;;;;;;;;;4903092;29;20061;-67
2021/08/31 13:24:29;;;;;;;4.97;3.53;;;;;;;;;;4904718;29;20464;-68
2021/08/31 13:26:56;;;;;;;4.22;2.85;;;;;;;;;;4903723;29;20075;-67
2021/08/31 13:29:23;;;;;;;3.85;3.42;;;;;;;;;;4905068;29;20081;-67
2021/08/31 13:31:49;;;;;;;7.75;3.50;;;;;;;;;;4903289;29;20048;-67
2021/08/31 13:34:16;;;;;;;3.55;3.25;;;;;;;;;;4906288;29;20060;-67
2021/08/31 13:36:44;;;;;;;4.70;3.95;;;;;;;;;;4903779;29;20108;-68
2021/08/31 13:39:14;;;;;;;4.60;4.07;;;;;;;;;;4904232;29;20472;-67
2021/08/31 13:41:41;;;;;;;5.68;4.22;;;;;;;;;;4905012;29;20115;-67
2021/08/31 13:44:08;;;;;;;5.93;4.70;;;;;;;;;;4903198;29;20056;-67
2021/08/31 13:46:35;;;;;;;5.60;4.07;;;;;;;;;;4913185;29;20055;-67
2021/08/31 13:49:03;;;;;;;6.03;5.15;;;;;;;;;;4917104;29;20048;-66
2021/08/31 13:51:30;;;;;;;7.00;4.80;;;;;;;;;;4917065;29;20108;-67
2021/08/31 13:53:57;;;;;;;5.35;4.85;;;;;;;;;;4916684;29;20048;-69
2021/08/31 13:56:24;;;;;;;7.70;5.15;;;;;;;;;;4904881;29;20543;-68
2021/08/31 13:58:50;;;;;;;5.47;4.38;;;;;;;;;;4905952;29;20120;-67
2021/08/31 14:01:17;;;;;;;9.57;5.93;;;;;;;;;;4906295;29;20083;-68
2021/08/31 14:03:45;;;;;;;5.88;5.05;;;;;;;;;;4902963;29;20127;-68
2021/08/31 14:06:12;;;;;;;6.32;5.00;;;;;;;;;;4902651;29;20140;-67
2021/08/31 14:08:40;;;;;;;5.78;5.10;;;;;;;;;;4903402;29;20109;-66
2021/08/31 14:11:06;;;;;;;7.22;5.25;;;;;;;;;;4902955;29;20108;-72
2021/08/31 14:13:33;;;;;;;7.95;6.25;;;;;;;;;;4906280;29;20056;-68
2021/08/31 14:16:00;;;;;;;10.98;8.18;;;;;;;;;;4907667;29;20064;-69
2021/08/31 14:18:26;;;;;;;13.65;8.23;;;;;;;;;;4903014;29;20203;-71
2021/08/31 14:20:53;;;;;;;9.23;7.03;;;;;;;;;;4903830;29;20116;-70
2021/08/31 14:23:20;;;;;;;8.32;5.43;;;;;;;;;;4902641;29;20064;-70
2021/08/31 14:25:47;;;;;;;8.27;5.60;;;;;;;;;;4906376;29;20056;-72
2021/08/31 14:28:16;;;;;;;8.77;5.32;;;;;;;;;;4887793;29;20048;-72
2021/08/31 14:30:43;;;;;;;7.53;5.05;;;;;;;;;;4905872;29;20474;-73
2021/08/31 14:33:10;;;;;;;5.50;4.78;;;;;;;;;;4902774;29;20056;-76
2021/08/31 14:35:37;;;;;;;5.13;4.63;;;;;;;;;;4907166;29;20052;-75
2021/08/31 14:38:06;;;;;;;7.55;4.57;;;;;;;;;;4891023;29;20055;-73